Time;durP1;ratioP1;P1;durP2;ratioP2;P2;SDS_P1;SDS_P2;PMS_P1;PMS_P2;Temp;Humidity;BMP_temperature;BMP_pressure;BME280_temperature;BME280_humidity;BME280_pressure;Samples;Min_cycle;Max_cycle;Signal;HPM_P1;HPM_P2
2021/01/17 00:01:48;;;;;;;22.70;10.03;;;;;;;-6.96;76.12;99129.02;1734012;83;21228;-82
2021/01/17 00:04:16;;;;;;;22.73;8.93;;;;;;;-6.90;76.01;99135.98;1778292;80;21219;-83
2021/01/17 00:06:44;;;;;;;26.55;9.98;;;;;;;-6.87;75.90;99131.93;1776502;79;21239;-83
2021/01/17 00:09:12;;;;;;;24.27;9.08;;;;;;;-6.83;75.94;99130.41;1768086;80;21275;-83
2021/01/17 00:11:39;;;;;;;32.73;9.90;;;;;;;-6.80;75.62;99130.16;1768053;80;21243;-82
2021/01/17 00:14:07;;;;;;;26.87;9.95;;;;;;;-6.83;75.70;99137.59;1703882;79;21281;-82
2021/01/17 00:16:38;;;;;;;26.42;9.93;;;;;;;-6.82;75.57;99133.02;1654788;82;21308;-81
2021/01/17 00:19:06;;;;;;;22.73;9.85;;;;;;;-6.81;75.74;99131.34;1679325;85;21265;-81
2021/01/17 00:21:35;;;;;;;21.90;8.58;;;;;;;-6.82;75.94;99131.75;1677113;81;21169;-82
2021/01/17 00:24:03;;;;;;;22.05;8.85;;;;;;;-6.82;75.87;99130.89;1744784;78;21294;-84
2021/01/17 00:26:44;;;;;;;17.77;8.33;;;;;;;-6.78;75.59;99135.66;1741666;78;21364;31
2021/01/17 00:29:12;;;;;;;20.20;7.90;;;;;;;-6.80;75.93;99131.83;1693965;84;21210;-84
2021/01/17 00:31:40;;;;;;;21.42;10.85;;;;;;;-6.77;75.86;99133.20;1700007;78;21152;-82
2021/01/17 00:34:08;;;;;;;25.10;9.30;;;;;;;-6.78;76.37;99132.76;1718269;80;21171;-83
2021/01/17 00:36:39;;;;;;;26.97;9.25;;;;;;;-6.77;76.62;99138.27;1672270;84;21545;-84
2021/01/17 00:39:08;;;;;;;20.30;8.43;;;;;;;-6.77;76.80;99130.68;1679849;84;21281;-83
2021/01/17 00:41:36;;;;;;;22.70;9.15;;;;;;;-6.82;76.59;99119.52;1680032;82;21875;-83
2021/01/17 00:44:05;;;;;;;23.15;8.73;;;;;;;-6.68;76.10;99129.83;1675252;82;21326;-83
2021/01/17 00:46:39;;;;;;;25.20;8.80;;;;;;;-6.69;76.12;99131.87;1674830;84;21590;-82
2021/01/17 00:49:08;;;;;;;23.62;9.25;;;;;;;-6.67;76.30;99131.55;1705435;79;21224;-83
2021/01/17 00:51:52;;;;;;;21.97;9.78;;;;;;;-6.65;75.80;99134.15;1703476;80;21340;31
2021/01/17 00:54:39;;;;;;;25.00;10.25;;;;;;;-6.64;75.78;99132.95;1702199;79;21333;31
2021/01/17 00:57:07;;;;;;;21.82;9.50;;;;;;;-6.68;76.27;99120.98;1688098;81;21709;-82
2021/01/17 00:59:35;;;;;;;28.38;9.45;;;;;;;-6.61;75.72;99128.42;1693304;81;21288;-84
2021/01/17 01:02:04;;;;;;;22.93;10.72;;;;;;;-6.58;75.79;99131.10;1669361;82;21361;-84
2021/01/17 01:04:34;;;;;;;20.60;8.70;;;;;;;-6.54;75.62;99113.99;1686399;81;21137;-82
2021/01/17 01:07:01;;;;;;;26.42;9.15;;;;;;;-6.57;75.40;99124.37;1736153;80;21209;-83
2021/01/17 01:09:30;;;;;;;22.67;8.80;;;;;;;-6.62;75.56;99119.98;1743551;80;21271;-82
2021/01/17 01:11:57;;;;;;;27.17;9.33;;;;;;;-6.56;75.32;99116.00;1702702;79;21212;-82
2021/01/17 01:14:25;;;;;;;21.87;7.85;;;;;;;-6.65;75.45;99116.04;1723259;81;21113;-83
2021/01/17 01:16:55;;;;;;;21.97;8.13;;;;;;;-6.64;75.47;99106.41;1720841;81;21152;-82
2021/01/17 01:19:23;;;;;;;22.87;9.18;;;;;;;-6.62;75.53;99106.07;1720150;82;21320;-84
2021/01/17 01:22:03;;;;;;;27.87;10.67;;;;;;;-6.66;75.53;99112.20;1720647;79;21152;31
2021/01/17 01:24:34;;;;;;;19.98;7.75;;;;;;;-6.70;75.50;99100.23;1683528;82;21266;-84
2021/01/17 01:27:11;;;;;;;25.25;8.78;;;;;;;-6.71;75.62;99099.34;1715902;80;22565;31
2021/01/17 01:29:39;;;;;;;27.50;9.15;;;;;;;-6.74;75.86;99089.11;1721537;78;21334;-84
2021/01/17 01:32:07;;;;;;;20.77;10.25;;;;;;;-6.79;75.85;99090.56;1738384;80;21259;-84
2021/01/17 01:34:35;;;;;;;22.25;9.85;;;;;;;-6.80;75.87;99085.05;1715342;78;21316;-83
2021/01/17 01:37:03;;;;;;;20.65;9.20;;;;;;;-6.88;76.53;99083.86;1671317;83;21320;-83
2021/01/17 01:39:38;;;;;;;23.85;9.35;;;;;;;-6.86;75.89;99074.69;1682921;79;21432;31
2021/01/17 01:42:12;;;;;;;24.87;9.40;;;;;;;-6.89;76.11;99077.91;1718779;79;21984;31
2021/01/17 01:44:40;;;;;;;23.60;10.00;;;;;;;-7.02;76.99;99079.05;1707477;80;21327;-84
2021/01/17 01:47:13;;;;;;;22.32;10.55;;;;;;;-6.96;76.85;99080.11;1735869;79;21114;-84
2021/01/17 01:49:42;;;;;;;20.30;9.18;;;;;;;-6.98;77.13;99084.22;1743196;82;21254;-85
2021/01/17 01:52:13;;;;;;;26.52;9.73;;;;;;;-7.02;77.34;99076.94;1770040;80;21265;-84
2021/01/17 01:54:41;;;;;;;21.02;8.78;;;;;;;-7.01;77.15;99081.17;1768021;80;21221;-83
2021/01/17 01:57:09;;;;;;;19.60;8.15;;;;;;;-7.12;78.01;99084.88;1773559;80;21224;-85
2021/01/17 01:59:37;;;;;;;22.50;9.88;;;;;;;-7.07;77.15;99083.43;1795933;80;21248;-85
2021/01/17 02:02:08;;;;;;;21.23;9.00;;;;;;;-7.14;78.58;99073.46;1781451;79;21297;-85
2021/01/17 02:04:37;;;;;;;24.45;9.45;;;;;;;-7.13;78.58;99081.49;1750110;80;21127;-82
2021/01/17 02:07:18;;;;;;;21.15;9.90;;;;;;;-7.14;78.37;99072.58;1754108;82;21312;-83
2021/01/17 02:09:46;;;;;;;21.65;9.53;;;;;;;-7.14;78.63;99079.78;1740027;80;21298;-82
2021/01/17 02:12:28;;;;;;;23.65;9.18;;;;;;;-7.17;79.15;99077.10;1742944;81;21281;-83
2021/01/17 02:15:23;;;;;;;22.42;9.28;;;;;;;-7.15;78.33;99071.72;1750276;80;21274;-82
2021/01/17 02:17:50;;;;;;;;;;;;;;;-7.20;79.46;99071.52;1750747;80;21086;-83
2021/01/17 02:20:27;;;;;;;21.40;9.00;;;;;;;-7.16;79.06;99070.00;1728620;80;20120;-84
2021/01/17 02:23:12;;;;;;;22.98;8.45;;;;;;;-7.14;79.26;99067.14;1704661;79;21150;-83
2021/01/17 02:25:40;;;;;;;24.23;8.70;;;;;;;-7.13;79.30;99063.80;1741289;80;21287;-84
2021/01/17 02:28:13;;;;;;;19.17;8.35;;;;;;;-7.17;79.82;99062.34;1757853;80;21158;-84
2021/01/17 02:30:51;;;;;;;15.35;7.75;;;;;;;-7.07;77.97;99060.28;1757958;80;21260;-84
2021/01/17 02:33:29;;;;;;;18.07;7.10;;;;;;;-7.10;78.36;99060.54;1758093;79;21292;-83
2021/01/17 02:36:25;;;;;;;23.55;9.30;;;;;;;-7.11;78.74;99058.83;1778394;77;21619;-84
2021/01/17 02:39:19;;;;;;;21.93;7.97;;;;;;;-7.16;80.03;99061.16;1769630;78;21210;-83
2021/01/17 02:42:01;;;;;;;15.50;8.15;;;;;;;-7.10;79.48;99060.54;1786924;77;21304;-83
2021/01/17 02:44:32;;;;;;;19.00;9.10;;;;;;;-7.18;80.27;99059.34;1757915;79;21540;-83
2021/01/17 02:47:01;;;;;;;22.93;9.28;;;;;;;-7.18;80.62;99058.96;1758315;79;21232;-84
2021/01/17 02:49:30;;;;;;;18.17;8.53;;;;;;;-7.10;79.29;99056.37;1706514;80;21290;-82
2021/01/17 02:51:59;;;;;;;25.05;9.58;;;;;;;-7.08;79.68;99047.20;1715057;81;21133;-83
2021/01/17 02:54:34;;;;;;;20.50;8.15;;;;;;;-7.06;79.28;99048.13;1717475;78;21225;-82
2021/01/17 02:57:08;;;;;;;21.25;9.10;;;;;;;-7.11;80.16;99044.52;1777745;78;21238;-83
2021/01/17 02:59:57;;;;;;;14.23;7.00;;;;;;;-7.07;79.89;99038.80;1759852;79;21555;-84
2021/01/17 03:02:44;;;;;;;16.15;8.70;;;;;;;-7.05;79.68;99048.58;1775217;78;21217;-84
2021/01/17 03:05:18;;;;;;;20.10;8.23;;;;;;;-7.11;79.99;99044.93;1777307;78;21570;-84
2021/01/17 03:07:49;;;;;;;19.67;9.13;;;;;;;-7.15;80.10;99044.33;1754324;78;21237;-83
2021/01/17 03:10:18;;;;;;;22.65;8.28;;;;;;;-7.12;79.56;99039.39;1751117;80;21281;-84
2021/01/17 03:12:47;;;;;;;25.30;9.48;;;;;;;-7.12;79.40;99039.39;1745883;80;21158;-88
2021/01/17 03:15:17;;;;;;;21.05;8.50;;;;;;;-7.22;79.80;99035.63;1759727;79;21231;-84
2021/01/17 03:17:45;;;;;;;19.25;8.70;;;;;;;-7.28;80.01;99031.16;1769944;79;21138;-83
2021/01/17 03:20:13;;;;;;;19.00;9.43;;;;;;;-7.29;79.96;99028.56;1760283;79;21273;-83
2021/01/17 03:22:41;;;;;;;21.75;9.28;;;;;;;-7.38;80.45;99033.19;1771758;79;21297;-82
2021/01/17 03:25:10;;;;;;;18.35;8.33;;;;;;;-7.38;80.17;99026.50;1777531;78;21249;-83
2021/01/17 03:27:38;;;;;;;19.37;8.15;;;;;;;-7.44;80.57;99030.88;1762201;78;21263;-82
2021/01/17 03:30:07;;;;;;;26.10;10.90;;;;;;;-7.42;80.27;99027.13;1762912;79;21244;-81
2021/01/17 03:32:34;;;;;;;21.10;9.85;;;;;;;-7.56;80.36;99001.66;1763159;80;21334;-82
2021/01/17 03:35:03;;;;;;;28.17;10.20;;;;;;;-7.43;80.48;99026.67;1757229;79;21306;-82
2021/01/17 03:37:31;;;;;;;24.50;9.43;;;;;;;-7.53;80.76;99019.08;1764948;79;21409;-82
2021/01/17 03:39:59;;;;;;;25.23;9.83;;;;;;;-7.48;80.58;99025.22;1755774;81;21245;-83
2021/01/17 03:42:26;;;;;;;22.85;9.80;;;;;;;-7.49;80.57;99020.95;1762582;79;21297;-84
2021/01/17 03:44:54;;;;;;;27.77;9.90;;;;;;;-7.55;80.66;99016.03;1749746;81;21122;-83
2021/01/17 03:47:22;;;;;;;20.17;10.03;;;;;;;-7.51;80.81;99019.16;1754975;81;21225;-83
2021/01/17 03:49:50;;;;;;;18.17;8.93;;;;;;;-7.49;80.64;99018.42;1755234;79;21285;-83
2021/01/17 03:52:18;;;;;;;23.85;9.58;;;;;;;-7.47;80.45;99020.62;1748513;80;21293;-83
2021/01/17 03:54:48;;;;;;;22.42;8.90;;;;;;;-7.49;80.38;99012.52;1759077;81;21472;-84
2021/01/17 03:57:16;;;;;;;24.07;9.98;;;;;;;-7.52;80.16;99018.67;1754940;80;21142;-83
2021/01/17 03:59:44;;;;;;;20.52;8.68;;;;;;;-7.50;80.20;99017.08;1754886;80;21252;-84
2021/01/17 04:02:11;;;;;;;18.17;8.08;;;;;;;-7.47;79.80;99013.45;1754743;80;21289;-82
2021/01/17 04:04:39;;;;;;;22.25;8.73;;;;;;;-7.45;79.43;99019.44;1754442;80;21261;-82
2021/01/17 04:07:07;;;;;;;21.85;9.25;;;;;;;-7.54;79.81;99016.48;1754394;80;21116;-83
2021/01/17 04:09:35;;;;;;;21.97;9.30;;;;;;;-7.55;80.01;99013.51;1746226;82;21324;-82
2021/01/17 04:12:04;;;;;;;19.12;9.70;;;;;;;-7.55;79.85;99008.45;1748457;80;21225;-84
2021/01/17 04:14:31;;;;;;;21.30;10.08;;;;;;;-7.57;80.07;99007.52;1739667;80;21252;-84
2021/01/17 04:17:00;;;;;;;23.35;9.08;;;;;;;-7.60;80.35;99009.48;1688391;82;21271;-83
2021/01/17 04:19:28;;;;;;;23.47;8.43;;;;;;;-7.58;79.91;99010.83;1725856;81;21435;-84
2021/01/17 04:21:56;;;;;;;22.73;8.35;;;;;;;-7.69;80.78;99006.56;1749609;80;21332;-83
2021/01/17 04:24:24;;;;;;;16.70;9.30;;;;;;;-7.70;80.56;99013.28;1725113;81;21281;-84
2021/01/17 04:26:59;;;;;;;21.52;9.35;;;;;;;-7.71;80.68;99015.73;1752822;80;21277;-84
2021/01/17 04:29:27;;;;;;;26.12;9.35;;;;;;;-7.76;80.91;99014.23;1724343;82;21172;-84
2021/01/17 04:31:55;;;;;;;24.02;10.78;;;;;;;-7.78;81.04;99010.77;1733409;80;21256;-84
2021/01/17 04:34:23;;;;;;;25.30;10.32;;;;;;;-7.75;80.51;99011.34;1705154;82;21255;-84
2021/01/17 04:36:50;;;;;;;17.98;9.30;;;;;;;-7.76;80.49;99012.12;1697628;82;21281;-83
2021/01/17 04:39:18;;;;;;;19.12;9.23;;;;;;;-7.74;80.01;99021.88;1700112;83;21250;-83
2021/01/17 04:41:46;;;;;;;25.82;9.50;;;;;;;-7.77;80.40;99020.09;1699571;81;21274;-83
2021/01/17 04:44:20;;;;;;;22.95;11.70;;;;;;;-7.84;80.79;99019.33;1709985;81;21131;-83
2021/01/17 04:46:49;;;;;;;26.97;8.93;;;;;;;-7.83;80.84;99024.45;1703222;82;21277;-82
2021/01/17 04:49:21;;;;;;;23.60;10.00;;;;;;;-7.91;81.41;99023.23;1682736;83;21262;-83
2021/01/17 04:51:51;;;;;;;26.93;11.25;;;;;;;-7.91;80.99;99025.76;1698322;81;21257;-84
2021/01/17 04:54:18;;;;;;;26.77;10.00;;;;;;;-7.97;81.43;99030.52;1697004;82;21274;-81
2021/01/17 04:57:08;;;;;;;20.05;9.60;;;;;;;-7.98;81.29;99035.48;1673232;83;21336;-81
2021/01/17 05:00:03;;;;;;;28.05;10.70;;;;;;;-8.05;81.50;99031.82;1697591;82;21284;-81
2021/01/17 05:02:44;;;;;;;20.50;8.88;;;;;;;-8.05;81.43;99031.82;1691683;84;21158;-81
2021/01/17 05:05:24;;;;;;;19.75;10.50;;;;;;;-8.21;81.96;99032.75;1690871;82;21337;-83
2021/01/17 05:08:29;;;;;;;29.65;9.95;;;;;;;-8.21;81.48;99034.87;1700719;83;21197;-85
2021/01/17 05:11:07;;;;;;;28.60;11.00;;;;;;;-8.20;81.00;99030.30;1734985;80;21250;-85
2021/01/17 05:13:48;;;;;;;19.23;9.75;;;;;;;-8.24;81.33;99032.58;1748052;80;21214;-85
2021/01/17 05:16:16;;;;;;;24.63;10.40;;;;;;;-8.27;81.31;99032.05;1743301;79;21304;-84
2021/01/17 05:18:48;;;;;;;20.60;9.58;;;;;;;-8.21;80.57;99040.31;1744362;79;21273;-83
2021/01/17 05:21:20;;;;;;;19.02;9.10;;;;;;;-8.20;80.65;99044.18;1708819;83;21132;-84
2021/01/17 05:23:48;;;;;;;22.20;10.65;;;;;;;-8.24;81.07;99046.45;1712044;83;21138;-85
2021/01/17 05:26:16;;;;;;;27.98;9.28;;;;;;;-8.26;81.27;99042.59;1735546;81;21266;-84
2021/01/17 05:28:44;;;;;;;28.80;10.80;;;;;;;-8.24;81.40;99042.27;1722780;82;21302;-84
2021/01/17 05:31:13;;;;;;;32.05;11.60;;;;;;;-8.24;81.26;99043.53;1730122;82;21273;-85
2021/01/17 05:33:41;;;;;;;20.17;9.63;;;;;;;-8.15;80.79;99046.91;1736862;81;21242;-85
2021/01/17 05:36:15;;;;;;;29.85;9.60;;;;;;;-8.15;81.05;99045.65;1746586;81;21152;-84
2021/01/17 05:38:43;;;;;;;38.02;9.20;;;;;;;-8.14;81.16;99041.46;1753371;81;21098;-81
2021/01/17 05:41:25;;;;;;;21.87;9.60;;;;;;;-8.09;80.31;99043.83;1768922;80;21143;-84
2021/01/17 05:43:53;;;;;;;20.65;9.33;;;;;;;-8.12;80.56;99048.70;1755701;80;21289;-84
2021/01/17 05:46:21;;;;;;;20.10;8.95;;;;;;;-8.18;80.85;99045.89;1755622;80;21244;-84
2021/01/17 05:48:48;;;;;;;22.45;9.80;;;;;;;-8.14;80.74;99056.59;1747021;79;21208;-84
2021/01/17 05:51:27;;;;;;;23.27;10.32;;;;;;;-8.14;80.80;99049.03;1747793;80;21179;-83
2021/01/17 05:53:56;;;;;;;16.67;9.35;;;;;;;-8.20;80.96;99047.96;1740489;81;21302;-84
2021/01/17 05:56:24;;;;;;;24.70;10.72;;;;;;;-8.14;80.60;99044.84;1725732;82;21539;-84
2021/01/17 05:58:51;;;;;;;24.60;9.65;;;;;;;-8.12;80.73;99050.83;1725202;82;21254;-83
2021/01/17 06:01:20;;;;;;;19.50;9.20;;;;;;;-8.15;80.81;99053.22;1749111;82;21283;-84
2021/01/17 06:03:54;;;;;;;31.75;12.55;;;;;;;-8.16;81.18;99055.66;1746781;81;21339;-83
2021/01/17 06:06:28;;;;;;;30.17;11.90;;;;;;;-8.18;81.24;99055.98;1752745;81;21163;-84
2021/01/17 06:08:59;;;;;;;26.82;12.98;;;;;;;-8.22;81.58;99060.86;1740594;82;21250;-85
2021/01/17 06:11:28;;;;;;;23.77;12.55;;;;;;;-8.15;81.31;99060.78;1734354;81;21305;-85
2021/01/17 06:14:01;;;;;;;29.25;11.35;;;;;;;-8.15;81.26;99058.27;1737855;79;21222;-86
2021/01/17 06:16:40;;;;;;;31.60;11.53;;;;;;;-8.17;81.38;99058.99;1715589;81;21270;-83
2021/01/17 06:19:10;;;;;;;22.93;9.13;;;;;;;-8.19;81.42;99058.91;1707664;79;21273;-83
2021/01/17 06:21:43;;;;;;;21.57;9.50;;;;;;;-8.23;81.56;99063.34;1693835;79;21176;-84
2021/01/17 06:24:11;;;;;;;19.52;8.85;;;;;;;-8.17;81.03;99069.08;1691434;83;21289;-84
2021/01/17 06:26:40;;;;;;;18.12;7.85;;;;;;;-8.16;80.94;99067.87;1680355;79;21261;-83
2021/01/17 06:29:12;;;;;;;26.87;9.68;;;;;;;-8.22;81.13;99062.13;1683062;79;21324;-84
2021/01/17 06:31:40;;;;;;;19.02;8.55;;;;;;;-8.15;80.47;99067.50;1668624;83;21231;-84
2021/01/17 06:34:12;;;;;;;23.75;10.45;;;;;;;-8.18;80.61;99070.71;1669834;79;21299;-82
2021/01/17 06:36:43;;;;;;;24.80;8.35;;;;;;;-8.21;80.77;99076.48;1668464;85;21163;-84
2021/01/17 06:39:22;;;;;;;22.60;8.73;;;;;;;-8.16;80.45;99069.53;1665441;86;21309;-84
2021/01/17 06:41:54;;;;;;;24.43;8.23;;;;;;;-8.20;80.81;99076.97;1641190;86;21309;-83
2021/01/17 06:44:33;;;;;;;22.58;9.60;;;;;;;-8.13;80.60;99088.21;1664728;79;21277;-85
2021/01/17 06:47:03;;;;;;;22.85;9.98;;;;;;;-8.11;80.25;99079.47;1652372;82;21260;-85
2021/01/17 06:49:38;;;;;;;29.80;10.80;;;;;;;-8.09;80.27;99084.19;1643734;86;21193;-83
2021/01/17 06:52:08;;;;;;;27.32;11.40;;;;;;;-8.13;80.76;99093.66;1656300;85;21310;-85
2021/01/17 06:54:39;;;;;;;25.68;10.85;;;;;;;-8.11;80.71;99094.60;1664054;81;21267;-85
2021/01/17 06:57:08;;;;;;;24.57;9.85;;;;;;;-8.11;80.27;99093.34;1675443;80;21249;-85
2021/01/17 06:59:44;;;;;;;19.57;7.45;;;;;;;-8.04;79.96;99101.66;1696261;80;21396;-84
2021/01/17 07:02:36;;;;;;;18.00;9.43;;;;;;;-8.04;80.10;99103.80;1700380;81;21143;-84
2021/01/17 07:05:38;;;;;;;19.05;9.00;;;;;;;-8.03;80.20;99101.73;1698998;83;21156;-85
2021/01/17 07:08:50;;;;;;;23.18;8.85;;;;;;;-7.97;79.96;99104.95;1710756;80;21296;-83
2021/01/17 07:11:43;;;;;;;23.07;9.38;;;;;;;-7.93;79.77;99106.84;1711523;83;21292;-85
2021/01/17 07:14:15;;;;;;;21.27;9.85;;;;;;;-7.86;79.61;99110.14;1713736;81;21252;-81
2021/01/17 07:16:48;;;;;;;23.38;10.68;;;;;;;-7.84;79.59;99108.55;1686051;83;21300;-81
2021/01/17 07:19:20;;;;;;;26.30;13.08;;;;;;;-7.91;79.76;99112.82;1682846;85;21153;-83
2021/01/17 07:21:50;;;;;;;25.75;10.23;;;;;;;-7.89;79.85;99117.95;1704060;83;21596;-82
2021/01/17 07:24:21;;;;;;;27.17;11.73;;;;;;;-7.82;79.85;99118.70;1695824;79;21123;-84
2021/01/17 07:27:12;;;;;;;33.35;12.23;;;;;;;-7.86;80.12;99115.19;1766634;78;21211;-83
2021/01/17 07:29:42;;;;;;;21.75;10.70;;;;;;;-7.83;80.41;99108.15;1767327;78;21411;-85
2021/01/17 07:32:32;;;;;;;26.15;12.47;;;;;;;-7.74;79.99;99112.76;1754978;80;21276;-84
2021/01/17 07:35:13;;;;;;;17.87;9.05;;;;;;;-7.70;79.62;99105.42;1775320;79;21288;-84
2021/01/17 07:37:43;;;;;;;22.85;10.32;;;;;;;-7.65;79.43;99110.27;1733107;79;21152;-83
2021/01/17 07:40:13;;;;;;;30.32;11.40;;;;;;;-7.68;79.31;99105.09;1719189;82;21303;-82
2021/01/17 07:42:40;;;;;;;25.70;11.85;;;;;;;-7.73;79.22;99099.36;1696753;84;21315;-81
2021/01/17 07:45:18;;;;;;;26.23;11.78;;;;;;;-7.72;79.31;99113.69;1715639;83;21312;-82
2021/01/17 07:47:46;;;;;;;23.02;11.70;;;;;;;-7.71;79.36;99105.34;1722030;80;21233;-83
2021/01/17 07:50:14;;;;;;;27.32;10.28;;;;;;;-7.66;79.35;99108.56;1716007;80;21245;-81
2021/01/17 07:52:50;;;;;;;25.10;10.72;;;;;;;-7.66;79.63;99104.77;1700626;79;21290;-84
2021/01/17 07:55:21;;;;;;;27.17;10.70;;;;;;;-7.66;79.51;99107.30;1730984;80;21279;-85
2021/01/17 07:57:52;;;;;;;21.77;10.15;;;;;;;-7.70;79.36;99100.38;1747295;80;21278;-83
2021/01/17 08:00:27;;;;;;;19.73;10.30;;;;;;;-7.64;79.34;99102.30;1738896;80;21091;-83
2021/01/17 08:02:56;;;;;;;21.75;10.58;;;;;;;-7.70;79.49;99096.96;1741314;80;21130;-82
2021/01/17 08:05:52;;;;;;;27.07;11.97;;;;;;;-7.61;79.25;99108.77;1726157;80;21251;-83
2021/01/17 08:08:44;;;;;;;20.85;10.05;;;;;;;-7.48;79.28;99113.98;1813630;77;23079;-81
2021/01/17 08:11:10;;;;;;;21.82;8.68;;;;;;;-7.59;79.07;99097.08;1796172;78;21650;-84
2021/01/17 08:13:42;;;;;;;21.12;11.60;;;;;;;-7.57;79.46;99111.05;1756382;79;21200;-82
2021/01/17 08:16:10;;;;;;;28.62;11.35;;;;;;;-7.42;79.20;99107.95;1689503;81;21284;-85
2021/01/17 08:18:41;;;;;;;28.55;12.00;;;;;;;-7.38;79.28;99106.44;1682518;82;21149;31
2021/01/17 08:21:26;;;;;;;27.90;11.53;;;;;;;-7.33;79.09;99108.38;1676354;78;21263;-84
2021/01/17 08:24:17;;;;;;;21.62;9.68;;;;;;;-7.28;78.93;99109.84;1720752;81;21483;-82
2021/01/17 08:27:03;;;;;;;27.58;10.43;;;;;;;-7.21;79.04;99112.72;1715684;80;22222;-81
2021/01/17 08:29:53;;;;;;;27.58;10.98;;;;;;;-7.09;78.65;99106.50;1736083;78;21165;-84
2021/01/17 08:32:45;;;;;;;27.73;10.98;;;;;;;-7.05;78.64;99107.97;1720355;77;21152;-85
2021/01/17 08:35:37;;;;;;;30.95;12.47;;;;;;;-6.95;78.18;99114.30;1715119;77;21255;-83
2021/01/17 08:38:18;;;;;;;23.70;9.80;;;;;;;-6.89;77.64;99118.77;1786167;78;21537;-84
2021/01/17 08:40:50;;;;;;;33.28;11.97;;;;;;;-6.80;78.02;99126.77;1755171;80;21263;-83
2021/01/17 08:43:32;;;;;;;27.90;11.40;;;;;;;-6.98;77.98;99080.44;1748849;77;21177;-82
2021/01/17 08:46:01;;;;;;;30.57;9.68;;;;;;;-6.62;77.81;99125.45;1734076;77;21132;-83
2021/01/17 08:48:30;;;;;;;23.05;11.40;;;;;;;-6.58;76.88;99123.52;1749785;79;21159;-84
2021/01/17 08:51:15;;;;;;;28.27;10.45;;;;;;;-6.44;77.43;99129.17;1774007;77;21265;-83
2021/01/17 08:53:44;;;;;;;29.92;11.38;;;;;;;-6.29;77.74;99131.47;1815154;78;21241;-84
2021/01/17 08:56:20;;;;;;;22.13;8.95;;;;;;;-6.17;77.11;99131.98;1792556;78;21138;-83
2021/01/17 08:58:51;;;;;;;30.52;12.35;;;;;;;-6.03;77.47;99131.28;1785845;80;21127;-83
2021/01/17 09:01:21;;;;;;;30.97;11.25;;;;;;;-5.95;76.83;99131.20;1786040;80;21253;-83
2021/01/17 09:03:52;;;;;;;25.17;12.25;;;;;;;-5.78;77.11;99134.81;1797975;78;21122;-83
2021/01/17 09:06:28;;;;;;;22.45;9.80;;;;;;;-5.76;75.48;99129.41;1798930;79;21213;-83
2021/01/17 09:09:00;;;;;;;20.27;9.68;;;;;;;-5.73;74.91;99137.11;1761739;78;21251;-80
2021/01/17 09:11:42;;;;;;;27.22;11.80;;;;;;;-5.67;75.01;99135.70;1686598;82;21249;-84
2021/01/17 09:14:17;;;;;;;27.30;10.38;;;;;;;-5.61;74.74;99132.52;1740625;77;21441;-83
2021/01/17 09:16:53;;;;;;;23.30;10.32;;;;;;;-5.52;74.55;99134.16;1772564;77;21289;-83
2021/01/17 09:19:30;;;;;;;29.67;11.73;;;;;;;-5.42;74.69;99141.31;1732584;79;21309;31
2021/01/17 09:22:12;;;;;;;35.78;11.38;;;;;;;-5.37;74.78;99128.85;1730596;78;21211;31
2021/01/17 09:24:40;;;;;;;37.15;13.13;;;;;;;-5.33;74.82;99134.50;1766937;77;22510;-80
2021/01/17 09:27:28;;;;;;;34.63;12.50;;;;;;;-5.22;75.44;99135.75;1770429;77;21243;31
2021/01/17 09:30:07;;;;;;;41.83;14.45;;;;;;;-5.18;74.96;99129.13;1746789;77;21178;31
2021/01/17 09:42:14;;;;;;;20.25;9.43;;;;;;;-4.88;73.92;99134.48;1750119;77;21201;-81
2021/01/17 09:44:49;;;;;;;24.87;10.25;;;;;;;-4.72;74.33;99134.64;1743050;81;21183;-82
2021/01/17 09:47:21;;;;;;;28.45;9.78;;;;;;;-4.72;72.72;99140.98;1748731;81;21197;-81
2021/01/17 09:49:50;;;;;;;21.60;9.28;;;;;;;-4.70;72.83;99122.88;1766756;79;21093;-82
2021/01/17 09:52:20;;;;;;;22.65;10.30;;;;;;;-4.68;72.08;99127.59;1768691;78;21564;-82
2021/01/17 10:00:51;;;;;;;22.17;9.40;;;;;;;-4.51;71.99;99116.80;1757977;77;21154;31
2021/01/17 10:03:19;;;;;;;20.82;8.70;;;;;;;-4.50;71.39;99111.30;1707809;81;21275;-86
2021/01/17 10:05:47;;;;;;;18.05;7.87;;;;;;;-4.28;72.49;99110.38;1741542;81;21290;-84
2021/01/17 10:08:15;;;;;;;17.52;7.62;;;;;;;-4.28;72.49;99110.38;1706375;81;21288;-84
2021/01/17 10:14:00;;;;;;;24.90;8.55;;;;;;;-4.15;69.88;99101.52;1734356;80;21169;-81
2021/01/17 10:16:28;;;;;;;30.97;8.28;;;;;;;-4.08;70.45;99097.97;1779271;77;21231;-81
2021/01/17 10:22:10;;;;;;;24.15;9.73;;;;;;;-3.83;69.55;99096.22;1758473;77;21152;-81
2021/01/17 10:24:38;;;;;;;27.32;7.65;;;;;;;-3.83;69.55;99096.22;1731373;81;21149;-82
2021/01/17 10:27:10;;;;;;;19.77;7.75;;;;;;;-3.81;69.58;99095.44;1732715;77;21156;-79
2021/01/17 10:29:41;;;;;;;18.07;7.78;;;;;;;-3.71;69.78;99098.28;1765639;81;21305;-83
2021/01/17 10:35:25;;;;;;;18.80;7.30;;;;;;;-3.71;68.05;99092.79;1698641;83;21150;-82
2021/01/17 10:37:53;;;;;;;18.70;7.60;;;;;;;-3.66;68.12;99082.77;1670746;84;21141;-83
2021/01/17 10:40:30;;;;;;;23.10;9.30;;;;;;;-3.57;66.73;99091.09;1744591;78;21320;-83
2021/01/17 10:43:09;;;;;;;23.42;9.45;;;;;;;-3.72;66.82;99091.08;1740635;79;21342;31
2021/01/17 10:54:58;;;;;;;17.62;7.55;;;;;;;-3.34;66.10;99085.05;1736146;81;21247;-83
2021/01/17 10:57:45;;;;;;;17.90;7.83;;;;;;;-3.16;66.53;99079.64;1738199;78;21109;31
2021/01/17 11:12:41;;;;;;;24.00;8.23;;;;;;;-2.86;63.07;99081.34;1753049;78;21157;-80
2021/01/17 11:15:15;;;;;;;24.55;9.60;;;;;;;-2.65;63.86;99086.15;1776822;76;21263;-81
2021/01/17 11:17:56;;;;;;;34.65;9.45;;;;;;;-2.54;65.10;99078.83;1728428;80;21264;-81
2021/01/17 11:20:30;;;;;;;32.45;10.58;;;;;;;-2.52;63.60;99075.48;1738826;80;21260;-82
2021/01/17 11:29:27;;;;;;;21.30;8.35;;;;;;;-2.24;65.01;99065.61;1689744;81;22408;31
2021/01/17 11:32:02;;;;;;;24.02;8.68;;;;;;;-2.14;64.34;99067.12;1703076;80;21316;31
2021/01/17 11:44:13;;;;;;;24.77;7.87;;;;;;;-2.06;59.67;99060.53;1675542;81;22382;31
2021/01/17 11:50:06;;;;;;;17.12;7.22;;;;;;;-1.94;59.38;99058.28;1704916;81;21569;31
2021/01/17 12:02:25;;;;;;;20.75;6.95;;;;;;;-1.49;59.91;99049.99;1741443;79;21232;-81
2021/01/17 12:04:59;;;;;;;22.70;7.70;;;;;;;-0.81;58.16;99047.16;1806032;78;21281;-88
2021/01/17 12:07:28;;;;;;;21.17;8.35;;;;;;;-0.03;60.22;99039.18;1714766;76;21327;-89
2021/01/17 12:10:11;;;;;;;21.17;8.80;;;;;;;0.75;60.60;99049.72;1708125;80;21335;-91
2021/01/17 12:12:40;;;;;;;23.77;8.40;;;;;;;1.52;57.99;99045.52;1768981;80;21670;-90
2021/01/17 12:15:10;;;;;;;20.70;9.18;;;;;;;2.22;53.60;99041.45;1726259;79;22357;-87
2021/01/17 12:17:38;;;;;;;22.55;9.23;;;;;;;2.56;48.25;99048.09;1696851;81;21235;-89
2021/01/17 12:20:10;;;;;;;21.07;7.45;;;;;;;3.17;53.04;99047.56;1693605;81;22268;-90
2021/01/17 12:22:37;;;;;;;28.47;10.60;;;;;;;3.77;47.87;99044.71;1712614;81;21298;-88
2021/01/17 12:25:08;;;;;;;25.02;9.78;;;;;;;3.96;48.64;99037.04;1716126;77;21173;-92
2021/01/17 12:27:35;;;;;;;33.90;12.05;;;;;;;4.56;45.95;99048.59;1706851;81;21319;-91
2021/01/17 12:30:05;;;;;;;28.90;8.35;;;;;;;4.79;44.24;99045.95;1697634;84;21319;-88
2021/01/17 12:32:33;;;;;;;20.02;8.55;;;;;;;4.57;43.44;99046.42;1771720;80;21283;-89
2021/01/17 12:35:01;;;;;;;23.98;8.85;;;;;;;4.59;42.11;99048.56;1774884;80;21172;-91
2021/01/17 12:37:29;;;;;;;21.52;10.55;;;;;;;4.72;46.86;99046.40;1775550;79;21298;-88
2021/01/17 12:39:57;;;;;;;24.40;10.05;;;;;;;4.99;46.55;99049.75;1775273;80;21294;-88
2021/01/17 12:42:25;;;;;;;21.48;9.95;;;;;;;5.14;46.95;99048.41;1779618;80;21314;-91
2021/01/17 12:44:52;;;;;;;17.92;8.93;;;;;;;5.43;46.06;99045.27;1783002;80;21266;-89
2021/01/17 12:47:20;;;;;;;20.17;8.80;;;;;;;5.29;45.49;99060.80;1777293;80;21117;-86
2021/01/17 12:49:48;;;;;;;21.90;8.60;;;;;;;5.25;44.99;99058.70;1779290;80;22210;-91
2021/01/17 12:52:16;;;;;;;18.73;8.93;;;;;;;4.83;43.37;99059.24;1778183;80;21609;-91
2021/01/17 12:54:44;;;;;;;18.60;8.70;;;;;;;3.87;39.44;99057.59;1778061;79;21137;-91
2021/01/17 12:57:11;;;;;;;29.85;10.25;;;;;;;3.07;40.73;99063.80;1780703;80;21429;-91
2021/01/17 12:59:39;;;;;;;28.67;9.75;;;;;;;2.52;45.19;99062.61;1784821;79;21176;-91
2021/01/17 13:02:07;;;;;;;24.18;8.08;;;;;;;2.12;46.18;99067.44;1772708;80;21160;-91
2021/01/17 13:04:35;;;;;;;26.48;8.13;;;;;;;1.48;46.28;99064.27;1773137;80;21154;-89
2021/01/17 13:07:05;;;;;;;21.02;9.55;;;;;;;0.98;48.32;99062.41;1776843;80;21201;-89